createdAt,value
2022-11-29T00:01:14.749Z,13.30
2022-11-29T00:03:41.098Z,13.40
2022-11-29T00:06:09.343Z,12.87
2022-11-29T00:08:36.130Z,13.03
2022-11-29T00:11:06.587Z,13.10
2022-11-29T00:13:33.487Z,13.70
2022-11-29T00:16:04.285Z,12.93
2022-11-29T00:18:31.111Z,13.70
2022-11-29T00:20:57.351Z,12.67
2022-11-29T00:23:23.539Z,13.53
2022-11-29T00:25:49.810Z,13.43
2022-11-29T00:28:15.960Z,12.60
2022-11-29T00:30:42.245Z,12.27
2022-11-29T00:33:08.611Z,11.77
2022-11-29T00:35:35.522Z,13.47
2022-11-29T00:38:01.764Z,13.33
2022-11-29T00:40:28.038Z,12.60
2022-11-29T00:42:54.267Z,13.33
2022-11-29T00:45:20.516Z,13.97
2022-11-29T00:47:46.659Z,13.60
2022-11-29T00:50:12.863Z,13.83
2022-11-29T00:52:39.679Z,14.23
2022-11-29T00:55:06.913Z,14.33
2022-11-29T00:57:33.229Z,13.93
2022-11-29T00:59:59.347Z,14.50
2022-11-29T01:02:25.614Z,15.17
2022-11-29T01:04:51.789Z,14.90
2022-11-29T01:07:18.006Z,15.33
2022-11-29T01:09:44.840Z,14.90
2022-11-29T01:12:11.087Z,14.30
2022-11-29T01:14:37.230Z,14.57
2022-11-29T01:17:03.462Z,15.30
2022-11-29T01:19:29.739Z,15.57
2022-11-29T01:21:55.839Z,15.53
2022-11-29T01:24:22.006Z,14.73
2022-11-29T01:26:48.873Z,15.33
2022-11-29T01:29:15.060Z,15.20
2022-11-29T01:31:41.215Z,15.20
2022-11-29T01:34:07.471Z,14.90
2022-11-29T01:36:34.539Z,14.37
2022-11-29T01:39:01.971Z,15.13
2022-11-29T01:41:30.078Z,14.93
2022-11-29T01:44:02.662Z,15.33
2022-11-29T01:46:30.700Z,15.23
2022-11-29T01:49:00.264Z,14.33
2022-11-29T01:51:27.433Z,15.83
2022-11-29T01:53:54.138Z,16.27
2022-11-29T01:56:20.596Z,15.90
2022-11-29T01:58:46.966Z,16.77
2022-11-29T02:01:14.185Z,16.33
2022-11-29T02:03:40.682Z,17.10
2022-11-29T02:06:08.009Z,17.60
2022-11-29T02:08:38.159Z,18.30
2022-11-29T02:11:22.298Z,19.60
2022-11-29T02:13:58.939Z,18.37
2022-11-29T02:16:31.305Z,18.43
2022-11-29T02:19:03.321Z,19.17
2022-11-29T02:21:38.364Z,19.37
2022-11-29T02:24:23.529Z,18.97
2022-11-29T02:27:13.810Z,19.53
2022-11-29T02:30:04.266Z,19.07
2022-11-29T02:33:02.769Z,18.63
2022-11-29T02:35:43.695Z,19.43
2022-11-29T02:38:21.416Z,20.30
2022-11-29T02:41:02.579Z,20.90
2022-11-29T02:43:47.243Z,21.37
2022-11-29T02:46:26.448Z,23.00
2022-11-29T02:49:00.287Z,21.43
2022-11-29T02:51:32.394Z,23.80
2022-11-29T02:54:03.197Z,24.03
2022-11-29T02:56:33.899Z,25.13
2022-11-29T02:59:03.480Z,23.97
2022-11-29T03:01:33.460Z,22.00
2022-11-29T03:04:06.496Z,23.50
2022-11-29T03:06:38.803Z,21.23
2022-11-29T03:09:08.557Z,21.90
2022-11-29T03:11:41.575Z,25.47
2022-11-29T03:14:14.561Z,26.30
2022-11-29T03:16:45.892Z,26.50
2022-11-29T03:19:26.662Z,25.87
2022-11-29T03:22:00.413Z,27.10
2022-11-29T03:24:32.793Z,28.80
2022-11-29T03:27:02.000Z,29.90
2022-11-29T03:29:33.147Z,29.97
2022-11-29T03:32:06.765Z,28.93
2022-11-29T03:34:45.033Z,28.70
2022-11-29T03:37:14.536Z,29.07
2022-11-29T03:39:47.317Z,28.33
2022-11-29T03:42:17.435Z,28.30
2022-11-29T03:44:50.056Z,28.20
2022-11-29T03:47:19.596Z,27.87
2022-11-29T03:49:49.467Z,30.30
2022-11-29T03:52:19.279Z,28.63
2022-11-29T03:54:53.013Z,28.23
2022-11-29T03:57:25.377Z,29.40
2022-11-29T03:59:56.986Z,29.93
2022-11-29T04:02:54.697Z,30.17
2022-11-29T04:05:33.715Z,31.60
2022-11-29T04:08:27.403Z,31.87
2022-11-29T04:11:12.819Z,30.20
2022-11-29T04:14:13.252Z,33.27
2022-11-29T04:17:10.452Z,34.23
2022-11-29T04:20:03.059Z,34.07
2022-11-29T04:22:53.203Z,34.10
2022-11-29T04:25:36.724Z,35.10
2022-11-29T04:28:28.819Z,35.40
2022-11-29T04:31:01.286Z,37.97
2022-11-29T04:33:42.679Z,36.00
2022-11-29T04:36:41.849Z,36.60
2022-11-29T04:39:31.954Z,35.97
2022-11-29T04:42:34.147Z,38.40
2022-11-29T04:45:45.637Z,38.13
2022-11-29T04:48:24.940Z,38.57
2022-11-29T04:50:59.308Z,40.00
2022-11-29T04:53:33.143Z,38.13
2022-11-29T04:56:10.154Z,40.57
2022-11-29T04:58:40.773Z,40.07
2022-11-29T05:01:14.723Z,40.23
2022-11-29T05:03:46.725Z,39.37
2022-11-29T05:06:19.783Z,39.83
2022-11-29T05:08:51.413Z,40.23
2022-11-29T05:11:27.151Z,39.83
2022-11-29T05:13:56.774Z,41.23
2022-11-29T05:16:37.743Z,40.67
2022-11-29T05:19:42.684Z,38.67
2022-11-29T05:22:20.723Z,39.57
2022-11-29T05:24:53.357Z,39.97
2022-11-29T05:27:32.234Z,41.23
2022-11-29T05:30:03.482Z,38.67
2022-11-29T05:32:33.358Z,40.13
2022-11-29T05:35:25.834Z,38.60
2022-11-29T05:37:54.119Z,39.87
2022-11-29T05:40:37.908Z,41.13
2022-11-29T05:43:15.834Z,40.73
2022-11-29T05:45:47.305Z,38.80
2022-11-29T05:48:18.334Z,39.90
2022-11-29T05:50:48.898Z,38.97
2022-11-29T05:53:21.168Z,40.27
2022-11-29T05:55:54.881Z,39.73
2022-11-29T05:58:30.519Z,40.13
2022-11-29T06:01:02.931Z,38.23
2022-11-29T06:03:33.274Z,39.47
2022-11-29T06:06:02.830Z,37.63
2022-11-29T06:08:35.419Z,37.90
2022-11-29T06:11:05.531Z,38.10
2022-11-29T06:13:42.244Z,37.43
2022-11-29T06:16:29.452Z,38.47
2022-11-29T06:19:25.628Z,37.17
2022-11-29T06:21:59.587Z,37.00
2022-11-29T06:24:40.896Z,37.57
2022-11-29T06:27:21.874Z,36.70
2022-11-29T06:29:53.488Z,38.57
2022-11-29T06:32:24.847Z,37.00
2022-11-29T06:34:55.449Z,36.20
2022-11-29T06:37:25.135Z,35.50
2022-11-29T06:39:51.878Z,36.27
2022-11-29T06:42:18.096Z,35.63
2022-11-29T06:44:45.581Z,33.93
2022-11-29T06:47:18.950Z,33.77
2022-11-29T06:49:47.997Z,31.93
2022-11-29T06:52:22.670Z,34.10
2022-11-29T06:55:13.251Z,32.77
2022-11-29T06:57:51.681Z,31.03
2022-11-29T07:00:20.684Z,32.37
2022-11-29T07:03:10.439Z,31.73
2022-11-29T07:05:37.222Z,30.97
2022-11-29T07:08:06.620Z,29.80
2022-11-29T07:10:37.268Z,32.43
2022-11-29T07:13:04.375Z,30.20
2022-11-29T07:15:31.593Z,31.00
2022-11-29T07:18:12.119Z,31.87
2022-11-29T07:20:43.142Z,31.17
2022-11-29T07:23:14.420Z,30.13
2022-11-29T07:25:50.038Z,31.27
2022-11-29T07:28:34.059Z,32.03
2022-11-29T07:31:07.228Z,32.03
2022-11-29T07:33:43.434Z,32.57
2022-11-29T07:36:14.267Z,30.83
2022-11-29T07:38:50.589Z,32.67
2022-11-29T07:41:20.143Z,31.87
2022-11-29T07:43:51.997Z,32.20
2022-11-29T07:46:18.175Z,31.50
2022-11-29T07:48:45.206Z,31.93
2022-11-29T07:51:11.911Z,30.47
2022-11-29T07:53:41.256Z,31.20
2022-11-29T07:56:08.514Z,31.63
2022-11-29T07:58:35.306Z,29.87
2022-11-29T08:01:01.534Z,30.27
2022-11-29T08:03:28.311Z,28.57
2022-11-29T08:05:55.141Z,29.07
2022-11-29T08:08:21.325Z,30.10
2022-11-29T08:10:47.612Z,28.03
2022-11-29T08:13:14.052Z,28.97
2022-11-29T08:15:43.961Z,27.67
2022-11-29T08:18:10.096Z,28.20
2022-11-29T08:20:36.283Z,27.33
2022-11-29T08:23:03.141Z,27.07
2022-11-29T08:25:29.297Z,27.03
2022-11-29T08:27:55.761Z,26.53
2022-11-29T08:30:22.300Z,26.30
2022-11-29T08:32:51.525Z,26.80
2022-11-29T08:35:19.118Z,26.77
2022-11-29T08:37:45.299Z,26.80
2022-11-29T08:40:12.978Z,25.73
2022-11-29T08:42:39.146Z,26.47
2022-11-29T08:45:06.629Z,27.83
2022-11-29T08:47:35.971Z,27.00
2022-11-29T08:50:02.185Z,27.83
2022-11-29T08:52:46.739Z,28.90
2022-11-29T08:55:13.637Z,29.23
2022-11-29T08:57:40.920Z,30.73
2022-11-29T09:00:09.383Z,32.53
2022-11-29T09:02:36.157Z,30.27
2022-11-29T09:05:02.628Z,31.97
2022-11-29T09:07:28.881Z,30.90
2022-11-29T09:09:55.125Z,31.13
2022-11-29T09:12:22.070Z,34.70
2022-11-29T09:14:48.819Z,33.40
2022-11-29T09:17:14.953Z,32.67
2022-11-29T09:19:41.136Z,35.60
2022-11-29T09:22:07.335Z,32.37
2022-11-29T09:24:33.553Z,33.27
2022-11-29T09:26:59.745Z,35.00
2022-11-29T09:29:26.565Z,34.90
2022-11-29T09:31:52.792Z,33.97
2022-11-29T09:34:19.024Z,34.27
2022-11-29T09:36:45.308Z,36.57
2022-11-29T09:39:11.856Z,35.57
2022-11-29T09:41:48.887Z,34.77
2022-11-29T09:44:19.987Z,34.27
2022-11-29T09:46:58.413Z,36.03
2022-11-29T09:49:46.074Z,36.03
2022-11-29T09:52:19.396Z,35.03
2022-11-29T09:54:52.962Z,35.67
2022-11-29T09:57:21.071Z,34.60
2022-11-29T09:59:49.038Z,34.60
2022-11-29T10:02:21.061Z,32.37
2022-11-29T10:04:52.662Z,33.27
2022-11-29T10:07:22.248Z,35.73
2022-11-29T10:09:51.372Z,34.17
2022-11-29T10:12:21.452Z,34.83
2022-11-29T10:14:52.047Z,34.90
2022-11-29T10:17:28.240Z,35.40
2022-11-29T10:19:57.261Z,35.13
2022-11-29T10:22:27.257Z,31.30
2022-11-29T10:24:57.387Z,29.23
2022-11-29T10:27:27.251Z,34.03
2022-11-29T10:29:53.634Z,36.17
2022-11-29T10:32:20.800Z,35.10
2022-11-29T10:34:48.191Z,29.87
2022-11-29T10:37:17.104Z,30.23
2022-11-29T10:39:45.566Z,30.83
2022-11-29T10:42:29.987Z,28.73
2022-11-29T10:44:56.206Z,30.20
2022-11-29T10:47:22.366Z,29.17
2022-11-29T10:49:49.157Z,29.13
2022-11-29T10:52:18.233Z,28.23
2022-11-29T10:54:46.161Z,28.80
2022-11-29T10:57:14.693Z,28.23
2022-11-29T10:59:41.093Z,29.63
2022-11-29T11:02:17.111Z,27.60
2022-11-29T11:04:45.862Z,26.67
2022-11-29T11:07:22.331Z,26.97
2022-11-29T11:09:51.198Z,26.40
2022-11-29T11:12:19.635Z,26.37
2022-11-29T11:14:46.544Z,25.53
2022-11-29T11:17:21.973Z,24.30
2022-11-29T11:19:55.054Z,26.20
2022-11-29T11:22:22.736Z,25.67
2022-11-29T11:24:56.936Z,25.30
2022-11-29T11:27:29.232Z,26.33
2022-11-29T11:29:55.418Z,25.70
2022-11-29T11:32:21.570Z,26.13
2022-11-29T11:34:51.693Z,26.03
2022-11-29T11:37:24.026Z,25.10
2022-11-29T11:39:51.971Z,25.43
2022-11-29T11:42:36.292Z,26.30
2022-11-29T11:45:03.713Z,26.27
2022-11-29T11:47:32.108Z,26.00
2022-11-29T11:50:06.344Z,25.60
2022-11-29T11:52:40.226Z,24.57
2022-11-29T11:55:32.359Z,23.87
2022-11-29T11:58:09.701Z,24.83
2022-11-29T12:01:02.548Z,24.87
2022-11-29T12:03:29.936Z,25.33
2022-11-29T12:05:59.026Z,23.80
2022-11-29T12:08:28.121Z,23.70
2022-11-29T12:10:59.733Z,22.47
2022-11-29T12:13:31.783Z,22.80
2022-11-29T12:16:02.854Z,23.40
2022-11-29T12:18:35.305Z,21.87
2022-11-29T12:21:07.016Z,23.53
2022-11-29T12:23:39.614Z,22.90
2022-11-29T12:26:19.196Z,23.27
2022-11-29T12:28:59.293Z,24.27
2022-11-29T12:31:37.419Z,23.63
2022-11-29T12:34:20.979Z,22.63
2022-11-29T12:36:53.267Z,23.87
2022-11-29T12:39:35.017Z,23.17
2022-11-29T12:42:03.908Z,20.30
2022-11-29T12:44:38.926Z,19.07
2022-11-29T12:47:36.541Z,19.67
2022-11-29T12:50:04.459Z,19.70
2022-11-29T12:52:36.565Z,18.90
2022-11-29T12:55:06.806Z,19.43
2022-11-29T12:57:38.018Z,18.30
2022-11-29T13:00:07.902Z,17.53
2022-11-29T13:02:42.572Z,19.50
2022-11-29T13:05:16.408Z,20.00
2022-11-29T13:07:52.731Z,19.63
2022-11-29T13:10:27.848Z,18.97
2022-11-29T13:12:56.018Z,20.70
2022-11-29T13:15:24.770Z,21.13
2022-11-29T13:17:54.740Z,19.70
2022-11-29T13:20:32.089Z,21.10
2022-11-29T13:23:05.279Z,20.60
2022-11-29T13:25:36.647Z,19.07
2022-11-29T13:28:06.318Z,20.20
2022-11-29T13:30:33.452Z,20.50
2022-11-29T13:33:03.197Z,21.80
2022-11-29T13:35:36.023Z,21.10
2022-11-29T13:38:09.769Z,21.40
2022-11-29T13:40:48.535Z,22.37
2022-11-29T13:43:19.123Z,20.53
2022-11-29T13:45:49.815Z,21.10
2022-11-29T13:48:36.808Z,20.30
2022-11-29T13:51:23.089Z,21.63
2022-11-29T13:53:49.660Z,21.93
2022-11-29T13:56:28.766Z,23.13
2022-11-29T13:58:55.845Z,24.27
2022-11-29T14:01:25.792Z,23.57
2022-11-29T14:04:03.496Z,25.23
2022-11-29T14:06:33.605Z,22.87
2022-11-29T14:09:24.516Z,25.07
2022-11-29T14:11:59.492Z,24.00
2022-11-29T14:14:28.699Z,24.70
2022-11-29T14:16:58.285Z,25.33
2022-11-29T14:19:31.507Z,24.80
2022-11-29T14:22:29.873Z,25.80
2022-11-29T14:25:01.299Z,26.03
2022-11-29T14:27:54.835Z,28.20
2022-11-29T14:31:00.546Z,27.40
2022-11-29T14:33:37.172Z,27.63
2022-11-29T14:36:25.154Z,29.10
2022-11-29T14:38:57.587Z,27.53
2022-11-29T14:41:28.532Z,28.37
2022-11-29T14:44:05.451Z,28.73
2022-11-29T14:46:32.213Z,26.90
2022-11-29T14:49:00.332Z,27.47
2022-11-29T14:51:28.469Z,27.70
2022-11-29T14:54:04.423Z,26.40
2022-11-29T14:56:41.902Z,25.97
2022-11-29T14:59:47.650Z,26.77
2022-11-29T15:02:32.178Z,25.23
2022-11-29T15:05:11.891Z,25.93
2022-11-29T15:07:42.831Z,24.57
2022-11-29T15:10:15.842Z,24.57
2022-11-29T15:12:42.772Z,24.97
2022-11-29T15:15:27.197Z,25.07
2022-11-29T15:17:58.103Z,24.60
2022-11-29T15:20:47.552Z,23.03
2022-11-29T15:23:15.480Z,22.53
2022-11-29T15:25:47.033Z,22.57
2022-11-29T15:28:19.986Z,23.73
2022-11-29T15:30:46.920Z,22.53
2022-11-29T15:33:19.883Z,22.37
2022-11-29T15:35:49.143Z,23.07
2022-11-29T15:38:17.687Z,22.90
2022-11-29T15:40:51.798Z,22.07
2022-11-29T15:43:21.600Z,22.97
2022-11-29T15:45:49.760Z,22.80
2022-11-29T15:48:18.378Z,21.07
2022-11-29T15:50:48.968Z,22.60
2022-11-29T15:53:18.058Z,20.07
2022-11-29T15:55:44.970Z,20.63
2022-11-29T15:58:13.264Z,20.60
2022-11-29T16:00:39.982Z,20.67
2022-11-29T16:03:15.215Z,20.63
2022-11-29T16:05:41.385Z,20.50
2022-11-29T16:08:13.108Z,21.23
2022-11-29T16:10:42.724Z,26.43
2022-11-29T16:13:30.377Z,25.83
2022-11-29T16:16:04.584Z,22.73
2022-11-29T16:18:31.463Z,22.83
2022-11-29T16:20:59.060Z,23.43
2022-11-29T16:23:32.590Z,24.53
2022-11-29T16:26:00.952Z,25.47
2022-11-29T16:28:30.558Z,24.03
2022-11-29T16:30:56.864Z,22.67
2022-11-29T16:33:24.348Z,22.03
2022-11-29T16:35:51.403Z,21.60
2022-11-29T16:38:19.963Z,19.93
2022-11-29T16:41:00.894Z,20.40
2022-11-29T16:43:46.653Z,23.07
2022-11-29T16:46:29.919Z,22.73
2022-11-29T16:48:57.687Z,25.57
2022-11-29T16:51:27.954Z,24.37
2022-11-29T16:53:55.015Z,21.63
2022-11-29T16:56:23.853Z,24.10
2022-11-29T16:59:24.952Z,22.67
2022-11-29T17:01:39.129Z,22.37
2022-11-29T17:04:05.339Z,19.37
2022-11-29T17:06:32.250Z,21.40
2022-11-29T17:08:59.051Z,20.80
2022-11-29T17:11:25.369Z,19.90
2022-11-29T17:13:52.503Z,17.97
2022-11-29T17:16:20.544Z,19.27
2022-11-29T17:18:47.148Z,17.90
2022-11-29T17:21:17.951Z,18.83
2022-11-29T17:23:45.268Z,17.37
2022-11-29T17:26:12.370Z,17.30
2022-11-29T17:28:39.608Z,17.43
2022-11-29T17:31:08.308Z,16.97
2022-11-29T17:33:34.643Z,15.50
2022-11-29T17:36:04.139Z,17.67
2022-11-29T17:38:30.312Z,16.30
2022-11-29T17:40:57.115Z,17.17
2022-11-29T17:43:23.298Z,15.27
2022-11-29T17:45:49.487Z,14.87
2022-11-29T17:48:15.836Z,14.83
2022-11-29T17:50:41.981Z,17.70
2022-11-29T17:53:08.148Z,15.63
2022-11-29T17:55:34.308Z,15.70
2022-11-29T17:58:01.113Z,17.70
2022-11-29T18:00:27.330Z,17.97
2022-11-29T18:02:53.546Z,16.77
2022-11-29T18:05:20.142Z,16.40
2022-11-29T18:07:57.333Z,16.33
2022-11-29T18:10:23.746Z,16.63
2022-11-29T18:12:50.197Z,16.13
2022-11-29T18:15:17.195Z,15.37
2022-11-29T18:17:43.333Z,16.57
2022-11-29T18:20:10.374Z,15.77
2022-11-29T18:22:36.622Z,16.27
2022-11-29T18:25:36.465Z,15.90
2022-11-29T18:27:49.422Z,16.00
2022-11-29T18:30:16.108Z,15.73
2022-11-29T18:32:42.935Z,15.67
2022-11-29T18:35:10.999Z,16.50
2022-11-29T18:38:12.869Z,15.93
2022-11-29T18:40:23.385Z,15.53
2022-11-29T18:42:50.233Z,15.33
2022-11-29T18:45:16.535Z,15.47
2022-11-29T18:47:43.610Z,13.80
2022-11-29T18:50:10.436Z,15.03
2022-11-29T18:52:40.717Z,14.77
2022-11-29T18:55:07.789Z,14.00
2022-11-29T18:57:34.537Z,14.63
2022-11-29T19:00:00.707Z,13.80
2022-11-29T19:02:26.931Z,15.47
2022-11-29T19:04:53.847Z,14.60
2022-11-29T19:07:20.189Z,14.13
2022-11-29T19:09:46.512Z,14.70
2022-11-29T19:12:12.952Z,13.83
2022-11-29T19:14:40.972Z,14.07
2022-11-29T19:17:09.070Z,13.80
2022-11-29T19:19:36.119Z,12.53
2022-11-29T19:22:03.441Z,12.70
2022-11-29T19:24:30.375Z,12.43
2022-11-29T19:26:57.277Z,13.43
2022-11-29T19:29:23.520Z,14.50
2022-11-29T19:31:49.914Z,14.03
2022-11-29T19:34:16.258Z,13.43
2022-11-29T19:36:44.129Z,14.67
2022-11-29T19:39:13.914Z,14.60
2022-11-29T19:41:41.787Z,14.47
2022-11-29T19:44:08.124Z,14.43
2022-11-29T19:46:36.687Z,15.47
2022-11-29T19:49:05.188Z,16.37
2022-11-29T19:51:31.967Z,15.80
2022-11-29T19:54:00.969Z,17.37
2022-11-29T19:56:28.587Z,17.20
2022-11-29T19:58:54.919Z,16.80
2022-11-29T20:01:24.286Z,18.47
2022-11-29T20:03:50.933Z,20.03
2022-11-29T20:06:18.064Z,19.47
2022-11-29T20:08:44.628Z,20.83
2022-11-29T20:11:12.339Z,19.53
2022-11-29T20:13:39.871Z,19.20
2022-11-29T20:16:08.941Z,19.17
2022-11-29T20:18:36.319Z,17.90
2022-11-29T20:21:04.460Z,18.40
2022-11-29T20:23:30.679Z,20.17
2022-11-29T20:25:56.895Z,22.63
2022-11-29T20:28:23.250Z,19.97
2022-11-29T20:30:50.207Z,19.60
2022-11-29T20:33:19.627Z,19.33
2022-11-29T20:35:45.977Z,19.03
2022-11-29T20:38:20.136Z,19.03
2022-11-29T20:40:58.160Z,20.97
2022-11-29T20:43:35.718Z,20.33
2022-11-29T20:46:03.092Z,22.10
2022-11-29T20:48:29.718Z,21.73
2022-11-29T20:50:58.149Z,22.13
2022-11-29T20:53:32.055Z,22.37
2022-11-29T20:55:58.463Z,21.23
2022-11-29T20:58:25.657Z,20.47
2022-11-29T21:00:52.230Z,21.37
2022-11-29T21:03:19.364Z,20.87
2022-11-29T21:05:45.954Z,21.87
2022-11-29T21:08:12.470Z,21.63
2022-11-29T21:10:38.678Z,22.87
2022-11-29T21:13:05.136Z,24.63
2022-11-29T21:15:32.073Z,23.60
2022-11-29T21:17:58.662Z,23.40
2022-11-29T21:20:26.656Z,23.10
2022-11-29T21:22:58.552Z,22.93
2022-11-29T21:25:31.463Z,23.37
2022-11-29T21:27:57.900Z,24.03
2022-11-29T21:30:24.757Z,24.27
2022-11-29T21:32:51.619Z,23.47
2022-11-29T21:35:18.106Z,27.10
2022-11-29T21:37:45.551Z,26.30
2022-11-29T21:40:13.070Z,26.07
2022-11-29T21:42:39.458Z,25.63
2022-11-29T21:45:11.668Z,26.27
2022-11-29T21:47:41.089Z,25.97
2022-11-29T21:50:08.075Z,25.43
2022-11-29T21:52:34.274Z,27.30
2022-11-29T21:55:01.087Z,26.57
2022-11-29T21:57:27.270Z,26.37
2022-11-29T21:59:53.375Z,27.63
2022-11-29T22:02:19.674Z,26.80
2022-11-29T22:04:46.174Z,26.83
2022-11-29T22:07:12.568Z,28.63
2022-11-29T22:09:38.717Z,27.43
2022-11-29T22:12:25.817Z,28.33
2022-11-29T22:14:52.173Z,28.47
2022-11-29T22:17:18.283Z,26.77
2022-11-29T22:19:44.473Z,28.50
2022-11-29T22:22:10.602Z,26.33
2022-11-29T22:24:36.875Z,28.07
2022-11-29T22:27:03.441Z,26.93
2022-11-29T22:29:30.276Z,27.60
2022-11-29T22:31:56.695Z,28.57
2022-11-29T22:34:24.302Z,26.30
2022-11-29T22:36:50.539Z,26.67
2022-11-29T22:39:16.690Z,27.13
2022-11-29T22:41:43.017Z,27.93
2022-11-29T22:44:09.374Z,25.87
2022-11-29T22:46:38.327Z,26.40
2022-11-29T22:49:04.535Z,32.40
2022-11-29T22:51:31.947Z,41.30
2022-11-29T22:54:00.030Z,39.30
2022-11-29T22:56:28.155Z,30.00
2022-11-29T22:58:54.564Z,29.07
2022-11-29T23:01:22.170Z,29.17
2022-11-29T23:03:51.176Z,27.17
2022-11-29T23:06:19.784Z,28.27
2022-11-29T23:08:47.076Z,27.20
2022-11-29T23:11:15.163Z,26.87
2022-11-29T23:13:42.438Z,28.03
2022-11-29T23:16:10.312Z,27.60
2022-11-29T23:18:37.616Z,28.20
2022-11-29T23:21:05.932Z,27.70
2022-11-29T23:23:32.136Z,26.93
2022-11-29T23:25:58.734Z,27.13
2022-11-29T23:28:24.872Z,28.03
2022-11-29T23:30:51.113Z,28.57
2022-11-29T23:33:17.295Z,26.20
2022-11-29T23:35:43.401Z,27.17
2022-11-29T23:38:10.334Z,27.20
2022-11-29T23:40:36.519Z,27.87
2022-11-29T23:43:02.758Z,27.93
2022-11-29T23:45:28.964Z,27.83
2022-11-29T23:47:55.611Z,28.57
2022-11-29T23:50:21.867Z,26.60
2022-11-29T23:52:52.127Z,27.30
2022-11-29T23:55:19.358Z,27.73
2022-11-29T23:57:45.546Z,27.53
